createdAt,value
2017-03-17T00:02:02.660Z,6.3
2017-03-17T00:07:03.385Z,6.3
2017-03-17T00:12:02.996Z,6.3
2017-03-17T00:17:03.569Z,6.2
2017-03-17T00:22:03.024Z,6.2
2017-03-17T00:27:03.433Z,6.2
2017-03-17T00:32:02.991Z,6.2
2017-03-17T00:37:03.473Z,6.1
2017-03-17T00:42:02.864Z,6.0
2017-03-17T00:47:03.426Z,6.0
2017-03-17T00:52:02.791Z,6.0
2017-03-17T00:57:03.110Z,5.9
2017-03-17T01:02:02.731Z,5.7
2017-03-17T01:07:03.592Z,5.6
2017-03-17T01:12:02.879Z,5.6
2017-03-17T01:17:03.692Z,5.5
2017-03-17T01:22:02.937Z,5.4
2017-03-17T01:27:03.322Z,5.3
2017-03-17T01:32:03.607Z,5.3
2017-03-17T01:37:03.546Z,5.3
2017-03-17T01:42:02.985Z,5.5
2017-03-17T01:47:03.851Z,5.5
2017-03-17T01:52:03.271Z,5.4
2017-03-17T01:57:03.517Z,5.4
2017-03-17T02:02:02.954Z,5.3
2017-03-17T02:07:03.347Z,5.2
2017-03-17T02:12:02.867Z,5.2
2017-03-17T02:17:03.372Z,5.1
2017-03-17T02:22:03.091Z,5.1
2017-03-17T02:27:02.702Z,5.1
2017-03-17T02:32:03.107Z,5.1
2017-03-17T02:37:03.474Z,4.8
2017-03-17T02:42:03.234Z,4.7
2017-03-17T02:47:03.459Z,4.7
2017-03-17T02:52:02.757Z,4.6
2017-03-17T02:57:03.449Z,4.6
2017-03-17T03:02:03.563Z,4.6
2017-03-17T03:07:03.314Z,4.6
2017-03-17T03:12:03.027Z,4.5
2017-03-17T03:17:03.429Z,4.6
2017-03-17T03:22:03.200Z,4.3
2017-03-17T03:27:02.776Z,4.3
2017-03-17T03:32:03.288Z,4.3
2017-03-17T03:37:03.503Z,4.2
2017-03-17T03:42:03.716Z,4.1
2017-03-17T03:47:02.731Z,4.0
2017-03-17T03:52:02.899Z,4.0
2017-03-17T03:57:03.240Z,3.9
2017-03-17T04:02:03.224Z,3.8
2017-03-17T04:07:03.286Z,3.8
2017-03-17T04:12:02.763Z,4.0
2017-03-17T04:17:03.101Z,3.9
2017-03-17T04:22:03.209Z,4.0
2017-03-17T04:27:03.601Z,4.1
2017-03-17T04:32:03.430Z,4.1
2017-03-17T04:37:03.601Z,4.1
2017-03-17T04:42:02.747Z,4.1
2017-03-17T04:47:03.055Z,4.0
2017-03-17T04:52:03.263Z,3.9
2017-03-17T04:57:02.766Z,3.9
2017-03-17T05:02:13.005Z,3.8
2017-03-17T05:07:02.852Z,3.7
2017-03-17T05:12:03.432Z,3.8
2017-03-17T05:17:13.190Z,3.7
2017-03-17T05:22:03.069Z,3.7
2017-03-17T05:27:03.406Z,3.6
2017-03-17T05:32:17.147Z,3.6
2017-03-17T05:37:02.930Z,3.5
2017-03-17T05:42:02.744Z,3.4
2017-03-17T05:47:13.419Z,3.4
2017-03-17T05:52:03.158Z,3.3
2017-03-17T05:57:03.083Z,3.4
2017-03-17T06:02:12.639Z,3.6
2017-03-17T06:07:03.646Z,3.7
2017-03-17T06:12:02.986Z,3.7
2017-03-17T06:17:17.299Z,4.0
2017-03-17T06:22:03.367Z,4.2
2017-03-17T06:27:03.510Z,4.9
2017-03-17T06:32:17.257Z,4.8
2017-03-17T06:37:03.038Z,5.1
2017-03-17T06:42:03.246Z,5.4
2017-03-17T06:47:13.458Z,5.9
2017-03-17T06:52:03.252Z,5.9
2017-03-17T06:57:03.207Z,6.1
2017-03-17T07:02:13.482Z,6.8
2017-03-17T07:07:02.825Z,6.7
2017-03-17T07:12:03.647Z,7.2
2017-03-17T07:17:13.463Z,8.1
2017-03-17T07:22:03.104Z,8.5
2017-03-17T07:27:03.498Z,8.5
2017-03-17T07:32:13.396Z,9.0
2017-03-17T07:37:02.790Z,9.7
2017-03-17T07:42:03.044Z,9.7
2017-03-17T07:47:13.379Z,10.6
2017-03-17T07:52:02.830Z,10.6
2017-03-17T07:57:02.701Z,11.1
2017-03-17T08:02:17.641Z,12.0
2017-03-17T08:07:03.375Z,12.4
2017-03-17T08:12:02.865Z,12.4
2017-03-17T08:17:13.501Z,12.8
2017-03-17T08:22:03.130Z,13.1
2017-03-17T08:27:03.416Z,13.2
2017-03-17T08:32:12.750Z,13.5
2017-03-17T08:37:02.686Z,13.5
2017-03-17T08:42:03.080Z,13.6
2017-03-17T08:47:13.784Z,13.5
2017-03-17T08:52:03.544Z,13.6
2017-03-17T08:57:03.314Z,14.1
2017-03-17T09:02:13.057Z,15.6
2017-03-17T09:07:02.826Z,15.5
2017-03-17T09:12:03.218Z,16.2
2017-03-17T09:17:13.268Z,16.8
2017-03-17T09:27:02.956Z,18.2
2017-03-17T09:32:13.262Z,18.5
2017-03-17T09:37:02.814Z,18.5
2017-03-17T09:42:03.057Z,19.1
2017-03-17T09:47:13.547Z,19.3
2017-03-17T09:52:03.224Z,19.5
2017-03-17T09:57:03.198Z,19.5
2017-03-17T10:02:12.859Z,20.0
2017-03-17T10:07:02.685Z,20.0
2017-03-17T10:12:02.761Z,20.3
2017-03-17T10:17:13.023Z,20.5
2017-03-17T10:22:02.943Z,20.7
2017-03-17T10:27:03.391Z,21.0
2017-03-17T10:32:12.452Z,21.8
2017-03-17T10:37:03.552Z,21.8
2017-03-17T10:42:02.704Z,22.0
2017-03-17T10:47:13.318Z,22.3
2017-03-17T10:52:03.346Z,22.4
2017-03-17T10:57:02.627Z,22.4
2017-03-17T11:02:02.839Z,22.8
2017-03-17T11:07:03.152Z,23.0
2017-03-17T11:12:03.427Z,22.9
2017-03-17T11:17:13.234Z,22.8
2017-03-17T11:22:03.450Z,22.6
2017-03-17T11:27:03.678Z,22.5
2017-03-17T11:32:13.412Z,22.5
2017-03-17T11:37:03.037Z,22.0
2017-03-17T11:42:03.074Z,21.7
2017-03-17T11:47:13.223Z,21.4
2017-03-17T11:52:03.434Z,21.3
2017-03-17T11:57:03.214Z,21.2
2017-03-17T12:02:13.674Z,21.4
2017-03-17T12:07:03.386Z,21.4
2017-03-17T12:12:03.207Z,21.3
2017-03-17T12:17:13.417Z,21.1
2017-03-17T12:22:03.282Z,21.1
2017-03-17T12:27:03.277Z,21.2
2017-03-17T12:32:13.192Z,21.4
2017-03-17T12:37:03.463Z,21.9
2017-03-17T12:42:03.443Z,21.7
2017-03-17T12:47:16.784Z,21.7
2017-03-17T12:52:03.244Z,20.9
2017-03-17T12:57:03.251Z,20.8
2017-03-17T13:02:12.935Z,20.7
2017-03-17T13:07:02.804Z,20.5
2017-03-17T13:12:03.827Z,20.5
2017-03-17T13:17:13.920Z,20.5
2017-03-17T13:22:03.141Z,20.4
2017-03-17T13:27:02.792Z,20.4
2017-03-17T13:32:13.584Z,20.8
2017-03-17T13:37:03.770Z,21.9
2017-03-17T13:42:02.976Z,21.9
2017-03-17T13:47:13.124Z,22.5
2017-03-17T13:52:03.449Z,22.4
2017-03-17T13:57:02.773Z,21.6
2017-03-17T14:02:13.270Z,21.6
2017-03-17T14:07:03.544Z,21.7
2017-03-17T14:12:03.201Z,23.2
2017-03-17T14:17:13.446Z,23.2
2017-03-17T14:22:03.219Z,23.7
2017-03-17T14:27:03.274Z,23.3
2017-03-17T14:32:13.050Z,22.4
2017-03-17T14:37:03.093Z,21.4
2017-03-17T14:42:02.799Z,20.6
2017-03-17T14:47:14.041Z,20.4
2017-03-17T14:52:03.051Z,22.1
2017-03-17T14:57:02.880Z,22.1
2017-03-17T15:02:13.080Z,23.2
2017-03-17T15:07:03.079Z,23.4
2017-03-17T15:12:03.475Z,23.4
2017-03-17T15:17:13.870Z,23.4
2017-03-17T15:22:03.159Z,21.0
2017-03-17T15:27:03.627Z,20.9
2017-03-17T15:32:13.464Z,20.5
2017-03-17T15:37:03.112Z,20.0
2017-03-17T15:42:03.582Z,18.5
2017-03-17T15:47:08.900Z,17.6
2017-03-17T15:52:02.847Z,16.8
2017-03-17T15:57:03.447Z,16.3
2017-03-17T16:02:13.675Z,15.3
2017-03-17T16:07:02.772Z,15.2
2017-03-17T16:12:03.652Z,15.1
2017-03-17T16:17:12.946Z,14.8
2017-03-17T16:22:02.996Z,14.4
2017-03-17T16:27:03.333Z,14.3
2017-03-17T16:32:16.417Z,14.1
2017-03-17T16:37:03.183Z,14.0
2017-03-17T16:42:03.311Z,13.8
2017-03-17T16:47:17.156Z,13.7
2017-03-17T16:52:03.066Z,13.5
2017-03-17T16:57:03.595Z,13.4
2017-03-17T17:02:13.013Z,13.3
2017-03-17T17:07:03.445Z,13.2
2017-03-17T17:12:02.795Z,13.1
2017-03-17T17:17:17.611Z,13.1
2017-03-17T17:22:03.240Z,12.8
2017-03-17T17:27:03.596Z,12.8
2017-03-17T17:32:13.552Z,12.6
2017-03-17T17:37:03.184Z,12.5
2017-03-17T17:42:03.353Z,12.4
2017-03-17T17:47:13.468Z,12.3
2017-03-17T17:52:02.846Z,12.2
2017-03-17T17:57:03.481Z,12.2
2017-03-17T18:02:12.783Z,12.0
2017-03-17T18:07:03.228Z,11.9
2017-03-17T18:12:03.458Z,11.7
2017-03-17T18:17:04.174Z,11.6
2017-03-17T18:22:02.864Z,11.6
2017-03-17T18:27:03.059Z,11.4
2017-03-17T18:32:02.926Z,11.2
2017-03-17T18:37:02.831Z,11.2
2017-03-17T18:42:02.972Z,11.0
2017-03-17T18:47:04.245Z,11.0
2017-03-17T18:52:02.848Z,10.9
2017-03-17T18:57:03.009Z,10.8
2017-03-17T19:02:03.553Z,10.9
2017-03-17T19:07:03.528Z,10.8
2017-03-17T19:12:03.208Z,10.8
2017-03-17T19:17:03.727Z,10.9
2017-03-17T19:22:03.234Z,10.8
2017-03-17T19:27:03.297Z,10.7
2017-03-17T19:32:03.713Z,10.7
2017-03-17T19:37:02.686Z,10.6
2017-03-17T19:42:02.821Z,10.6
2017-03-17T19:47:03.198Z,10.6
2017-03-17T19:52:02.743Z,10.6
2017-03-17T19:57:03.005Z,10.5
2017-03-17T20:02:02.856Z,10.3
2017-03-17T20:07:03.507Z,10.2
2017-03-17T20:12:02.784Z,10.2
2017-03-17T20:17:03.217Z,10.2
2017-03-17T20:22:03.202Z,10.1
2017-03-17T20:27:02.883Z,10.0
2017-03-17T20:32:03.018Z,9.9
2017-03-17T20:37:02.979Z,9.9
2017-03-17T20:42:03.300Z,9.8
2017-03-17T20:47:03.432Z,9.8
2017-03-17T20:52:02.934Z,9.7
2017-03-17T20:57:02.623Z,9.8
2017-03-17T21:02:03.519Z,9.7
2017-03-17T21:07:02.902Z,9.6
2017-03-17T21:12:03.394Z,9.6
2017-03-17T21:17:03.172Z,9.6
2017-03-17T21:22:02.874Z,9.5
2017-03-17T21:27:02.837Z,9.5
2017-03-17T21:32:02.934Z,9.5
2017-03-17T21:37:02.931Z,9.4
2017-03-17T21:42:03.176Z,9.4
2017-03-17T21:47:03.617Z,9.5
2017-03-17T21:52:02.800Z,9.4
2017-03-17T21:57:02.709Z,9.4
2017-03-17T22:02:02.740Z,9.4
2017-03-17T22:07:03.207Z,9.4
2017-03-17T22:12:03.060Z,9.4
2017-03-17T22:17:03.680Z,9.4
2017-03-17T22:22:02.795Z,9.3
2017-03-17T22:27:02.955Z,9.4
2017-03-17T22:32:03.630Z,9.4
2017-03-17T22:37:03.593Z,9.3
2017-03-17T22:42:02.915Z,9.4
2017-03-17T22:47:02.852Z,9.4
2017-03-17T22:52:03.562Z,9.4
2017-03-17T22:57:02.967Z,9.3
2017-03-17T23:02:03.426Z,9.3
2017-03-17T23:07:04.290Z,9.4
2017-03-17T23:12:02.875Z,9.3
2017-03-17T23:22:03.428Z,9.3
2017-03-17T23:27:03.024Z,9.2
2017-03-17T23:32:03.044Z,9.2
2017-03-17T23:37:03.389Z,9.2
2017-03-17T23:42:03.424Z,9.1
2017-03-17T23:47:03.494Z,9.1
2017-03-17T23:52:03.017Z,9.1
2017-03-17T23:57:03.064Z,9.0
